KBMQ

Burnet Municipal Kate Craddock Field Airport

Burnet, Texas, USA
METAR KBMQ 230153Z AUTO 14008KT 10SM CLR 27/19 A2997 RMK AO2 SLP132 T02670189
Observed Flight Rules
May-23 @ 01:53 UTC (an hour ago) Visual Flight Rules
Wind Visibility Clouds
140° at 8 knots 10 miles
  • Clear skies
Temperatures Readings
Current 27°C / 81°F
Dewpoint 19°C / 66°F
Humidity 62%
Altimeter 29.97" Hg
Pressure 1013.2 hPa
Elevation 389
METAR KBMQ 230153Z AUTO 14008KT 10SM CLR 27/19 A2997 RMK AO2 SLP132 T02670189
Observed Flight Rules
May-23 @ 01:53 UTC
(an hour ago)
VFR
Wind Visibility
140° at 8 knots 10 miles
Clouds
  • Clear skies
Temperature Dewpoint
27°C / 81°F 19°C / 66°F
Humidity Altimeter Pressure
62% 29.97" Hg 1013.2 hPa